sensor_id;sensor_type;location;lat;lon;timestamp;temperature;humidity
18041;DHT22;9145;48.588;9.250;2023-03-15T00:00:12;2.60;99.90
18041;DHT22;9145;48.588;9.250;2023-03-15T00:02:39;2.50;99.90
18041;DHT22;9145;48.588;9.250;2023-03-15T00:05:09;2.60;99.90
18041;DHT22;9145;48.588;9.250;2023-03-15T00:07:37;2.50;99.90
18041;DHT22;9145;48.588;9.250;2023-03-15T00:10:05;2.60;99.90
18041;DHT22;9145;48.588;9.250;2023-03-15T00:12:32;2.60;99.90
18041;DHT22;9145;48.588;9.250;2023-03-15T00:15:00;2.60;99.90
18041;DHT22;9145;48.588;9.250;2023-03-15T00:17:27;2.60;99.90
18041;DHT22;9145;48.588;9.250;2023-03-15T00:19:54;2.60;99.90
18041;DHT22;9145;48.588;9.250;2023-03-15T00:22:21;2.70;99.90
18041;DHT22;9145;48.588;9.250;2023-03-15T00:24:48;2.70;99.90
18041;DHT22;9145;48.588;9.250;2023-03-15T00:27:15;2.80;99.90
18041;DHT22;9145;48.588;9.250;2023-03-15T00:29:42;2.80;99.90
18041;DHT22;9145;48.588;9.250;2023-03-15T00:32:10;2.80;99.90
18041;DHT22;9145;48.588;9.250;2023-03-15T00:34:37;2.80;99.90
18041;DHT22;9145;48.588;9.250;2023-03-15T00:37:04;2.80;99.90
18041;DHT22;9145;48.588;9.250;2023-03-15T00:39:31;2.70;99.90
18041;DHT22;9145;48.588;9.250;2023-03-15T00:42:02;2.70;99.90
18041;DHT22;9145;48.588;9.250;2023-03-15T00:44:29;2.70;99.90
18041;DHT22;9145;48.588;9.250;2023-03-15T00:46:56;2.70;99.90
18041;DHT22;9145;48.588;9.250;2023-03-15T00:49:24;2.80;99.90
18041;DHT22;9145;48.588;9.250;2023-03-15T00:51:53;2.80;99.90
18041;DHT22;9145;48.588;9.250;2023-03-15T00:54:20;2.80;99.90
18041;DHT22;9145;48.588;9.250;2023-03-15T00:56:48;2.90;99.90
18041;DHT22;9145;48.588;9.250;2023-03-15T00:59:15;2.90;99.90
18041;DHT22;9145;48.588;9.250;2023-03-15T01:01:41;2.90;99.90
18041;DHT22;9145;48.588;9.250;2023-03-15T01:04:09;2.90;99.90
18041;DHT22;9145;48.588;9.250;2023-03-15T01:06:38;3.00;99.90
18041;DHT22;9145;48.588;9.250;2023-03-15T01:09:06;3.00;99.90
18041;DHT22;9145;48.588;9.250;2023-03-15T01:11:33;3.00;99.90
18041;DHT22;9145;48.588;9.250;2023-03-15T01:14:00;3.10;99.90
18041;DHT22;9145;48.588;9.250;2023-03-15T01:16:28;3.10;99.90
18041;DHT22;9145;48.588;9.250;2023-03-15T01:18:55;3.10;99.90
18041;DHT22;9145;48.588;9.250;2023-03-15T01:21:23;3.10;99.90
18041;DHT22;9145;48.588;9.250;2023-03-15T01:23:52;3.10;99.90
18041;DHT22;9145;48.588;9.250;2023-03-15T01:26:19;3.20;99.90
18041;DHT22;9145;48.588;9.250;2023-03-15T01:28:46;3.20;99.90
18041;DHT22;9145;48.588;9.250;2023-03-15T01:31:16;3.20;99.90
18041;DHT22;9145;48.588;9.250;2023-03-15T01:33:43;3.20;99.90
18041;DHT22;9145;48.588;9.250;2023-03-15T01:36:11;3.30;99.90
18041;DHT22;9145;48.588;9.250;2023-03-15T01:38:38;3.30;99.90
18041;DHT22;9145;48.588;9.250;2023-03-15T01:41:07;3.20;99.90
18041;DHT22;9145;48.588;9.250;2023-03-15T01:43:33;3.20;99.90
18041;DHT22;9145;48.588;9.250;2023-03-15T01:46:04;3.10;99.90
18041;DHT22;9145;48.588;9.250;2023-03-15T01:48:35;3.00;99.90
18041;DHT22;9145;48.588;9.250;2023-03-15T01:51:07;3.00;99.90
18041;DHT22;9145;48.588;9.250;2023-03-15T01:53:37;3.00;99.90
18041;DHT22;9145;48.588;9.250;2023-03-15T01:56:08;3.00;99.90
18041;DHT22;9145;48.588;9.250;2023-03-15T01:58:35;3.10;99.90
18041;DHT22;9145;48.588;9.250;2023-03-15T02:01:03;3.10;99.90
18041;DHT22;9145;48.588;9.250;2023-03-15T02:03:34;3.20;99.90
18041;DHT22;9145;48.588;9.250;2023-03-15T02:06:05;3.20;99.90
18041;DHT22;9145;48.588;9.250;2023-03-15T02:08:37;3.30;99.90
18041;DHT22;9145;48.588;9.250;2023-03-15T02:11:05;3.20;99.90
18041;DHT22;9145;48.588;9.250;2023-03-15T02:13:34;3.20;99.90
18041;DHT22;9145;48.588;9.250;2023-03-15T02:16:02;3.20;99.90
18041;DHT22;9145;48.588;9.250;2023-03-15T02:18:31;3.30;99.90
18041;DHT22;9145;48.588;9.250;2023-03-15T02:21:10;3.30;99.90
18041;DHT22;9145;48.588;9.250;2023-03-15T02:23:40;3.30;99.90
18041;DHT22;9145;48.588;9.250;2023-03-15T02:26:15;3.20;99.90
18041;DHT22;9145;48.588;9.250;2023-03-15T02:28:45;3.10;99.90
18041;DHT22;9145;48.588;9.250;2023-03-15T02:31:12;3.10;99.90
18041;DHT22;9145;48.588;9.250;2023-03-15T02:33:42;3.00;99.90
18041;DHT22;9145;48.588;9.250;2023-03-15T02:36:14;3.00;99.90
18041;DHT22;9145;48.588;9.250;2023-03-15T02:38:42;3.00;99.90
18041;DHT22;9145;48.588;9.250;2023-03-15T02:41:09;2.90;99.90
18041;DHT22;9145;48.588;9.250;2023-03-15T02:43:38;2.90;99.90
18041;DHT22;9145;48.588;9.250;2023-03-15T02:46:08;2.90;99.90
18041;DHT22;9145;48.588;9.250;2023-03-15T02:48:37;2.80;99.90
18041;DHT22;9145;48.588;9.250;2023-03-15T02:51:05;2.80;99.90
18041;DHT22;9145;48.588;9.250;2023-03-15T02:53:32;2.80;99.90
18041;DHT22;9145;48.588;9.250;2023-03-15T02:55:59;2.70;99.90
18041;DHT22;9145;48.588;9.250;2023-03-15T02:58:25;2.70;99.90
18041;DHT22;9145;48.588;9.250;2023-03-15T03:00:53;2.60;99.90
18041;DHT22;9145;48.588;9.250;2023-03-15T03:03:21;2.70;99.90
18041;DHT22;9145;48.588;9.250;2023-03-15T03:05:48;2.70;99.90
18041;DHT22;9145;48.588;9.250;2023-03-15T03:08:15;2.70;99.90
18041;DHT22;9145;48.588;9.250;2023-03-15T03:10:42;2.70;99.90
18041;DHT22;9145;48.588;9.250;2023-03-15T03:13:09;2.70;99.90
18041;DHT22;9145;48.588;9.250;2023-03-15T03:15:36;2.80;99.90
18041;DHT22;9145;48.588;9.250;2023-03-15T03:18:03;2.70;99.90
18041;DHT22;9145;48.588;9.250;2023-03-15T03:20:31;2.80;99.90
18041;DHT22;9145;48.588;9.250;2023-03-15T03:22:58;2.80;99.90
18041;DHT22;9145;48.588;9.250;2023-03-15T03:25:30;2.70;99.90
18041;DHT22;9145;48.588;9.250;2023-03-15T03:27:57;2.70;99.90
18041;DHT22;9145;48.588;9.250;2023-03-15T03:30:24;2.60;99.90
18041;DHT22;9145;48.588;9.250;2023-03-15T03:32:51;2.60;99.90
18041;DHT22;9145;48.588;9.250;2023-03-15T03:35:18;2.60;99.90
18041;DHT22;9145;48.588;9.250;2023-03-15T03:37:46;2.50;99.90
18041;DHT22;9145;48.588;9.250;2023-03-15T03:40:13;2.50;99.90
18041;DHT22;9145;48.588;9.250;2023-03-15T03:42:40;2.50;99.90
18041;DHT22;9145;48.588;9.250;2023-03-15T03:45:07;2.40;99.90
18041;DHT22;9145;48.588;9.250;2023-03-15T03:47:35;2.40;99.90
18041;DHT22;9145;48.588;9.250;2023-03-15T03:50:01;2.40;99.90
18041;DHT22;9145;48.588;9.250;2023-03-15T03:52:28;2.40;99.90
18041;DHT22;9145;48.588;9.250;2023-03-15T03:54:56;2.40;99.90
18041;DHT22;9145;48.588;9.250;2023-03-15T03:57:23;2.30;99.90
18041;DHT22;9145;48.588;9.250;2023-03-15T03:59:50;2.20;99.90
18041;DHT22;9145;48.588;9.250;2023-03-15T04:02:17;2.20;99.90
18041;DHT22;9145;48.588;9.250;2023-03-15T04:04:44;2.20;99.90
18041;DHT22;9145;48.588;9.250;2023-03-15T04:07:14;2.30;99.90
18041;DHT22;9145;48.588;9.250;2023-03-15T04:09:41;2.30;99.90
18041;DHT22;9145;48.588;9.250;2023-03-15T04:12:10;2.30;99.90
18041;DHT22;9145;48.588;9.250;2023-03-15T04:14:37;2.30;99.90
18041;DHT22;9145;48.588;9.250;2023-03-15T04:17:03;2.30;99.90
18041;DHT22;9145;48.588;9.250;2023-03-15T04:19:33;2.30;99.90
18041;DHT22;9145;48.588;9.250;2023-03-15T04:22:00;2.20;99.90
18041;DHT22;9145;48.588;9.250;2023-03-15T04:24:32;2.20;99.90
18041;DHT22;9145;48.588;9.250;2023-03-15T04:26:59;2.20;99.90
18041;DHT22;9145;48.588;9.250;2023-03-15T04:29:27;2.20;99.90
18041;DHT22;9145;48.588;9.250;2023-03-15T04:31:54;2.10;99.90
18041;DHT22;9145;48.588;9.250;2023-03-15T04:34:26;2.20;99.90
18041;DHT22;9145;48.588;9.250;2023-03-15T04:36:54;2.20;99.90
18041;DHT22;9145;48.588;9.250;2023-03-15T04:39:21;2.20;99.90
18041;DHT22;9145;48.588;9.250;2023-03-15T04:41:48;2.20;99.90
18041;DHT22;9145;48.588;9.250;2023-03-15T04:44:15;2.20;99.90
18041;DHT22;9145;48.588;9.250;2023-03-15T04:46:44;2.20;99.90
18041;DHT22;9145;48.588;9.250;2023-03-15T04:49:11;2.30;99.90
18041;DHT22;9145;48.588;9.250;2023-03-15T04:51:38;2.30;99.90
18041;DHT22;9145;48.588;9.250;2023-03-15T04:54:04;2.40;99.90
18041;DHT22;9145;48.588;9.250;2023-03-15T04:56:31;2.40;99.90
18041;DHT22;9145;48.588;9.250;2023-03-15T04:58:58;2.30;99.90
18041;DHT22;9145;48.588;9.250;2023-03-15T05:01:28;2.20;99.90
18041;DHT22;9145;48.588;9.250;2023-03-15T05:03:57;2.20;99.90
18041;DHT22;9145;48.588;9.250;2023-03-15T05:06:23;2.20;99.90
18041;DHT22;9145;48.588;9.250;2023-03-15T05:08:50;2.20;99.90
18041;DHT22;9145;48.588;9.250;2023-03-15T05:11:17;2.20;99.90
18041;DHT22;9145;48.588;9.250;2023-03-15T05:13:44;2.20;99.90
18041;DHT22;9145;48.588;9.250;2023-03-15T05:16:11;2.30;99.90
18041;DHT22;9145;48.588;9.250;2023-03-15T05:18:37;2.30;99.90
18041;DHT22;9145;48.588;9.250;2023-03-15T05:21:06;2.40;99.90
18041;DHT22;9145;48.588;9.250;2023-03-15T05:23:33;2.50;99.90
18041;DHT22;9145;48.588;9.250;2023-03-15T05:26:00;2.50;99.90
18041;DHT22;9145;48.588;9.250;2023-03-15T05:28:28;2.50;99.90
18041;DHT22;9145;48.588;9.250;2023-03-15T05:30:56;2.50;99.90
18041;DHT22;9145;48.588;9.250;2023-03-15T05:33:23;2.40;99.90
18041;DHT22;9145;48.588;9.250;2023-03-15T05:35:50;2.30;99.90
18041;DHT22;9145;48.588;9.250;2023-03-15T05:38:22;2.30;99.90
18041;DHT22;9145;48.588;9.250;2023-03-15T05:40:51;2.30;99.90
18041;DHT22;9145;48.588;9.250;2023-03-15T05:43:18;2.20;99.90
18041;DHT22;9145;48.588;9.250;2023-03-15T05:45:45;2.10;99.90
18041;DHT22;9145;48.588;9.250;2023-03-15T05:48:13;2.00;99.90
18041;DHT22;9145;48.588;9.250;2023-03-15T05:50:41;2.00;99.90
18041;DHT22;9145;48.588;9.250;2023-03-15T05:53:09;1.90;99.90
18041;DHT22;9145;48.588;9.250;2023-03-15T05:55:37;1.90;99.90
18041;DHT22;9145;48.588;9.250;2023-03-15T05:58:04;1.90;99.90
18041;DHT22;9145;48.588;9.250;2023-03-15T06:00:31;1.80;99.90
18041;DHT22;9145;48.588;9.250;2023-03-15T06:02:58;1.80;99.90
18041;DHT22;9145;48.588;9.250;2023-03-15T06:05:25;1.80;99.90
18041;DHT22;9145;48.588;9.250;2023-03-15T06:07:52;1.80;99.90
18041;DHT22;9145;48.588;9.250;2023-03-15T06:10:19;1.90;99.90
18041;DHT22;9145;48.588;9.250;2023-03-15T06:12:47;1.80;99.90
18041;DHT22;9145;48.588;9.250;2023-03-15T06:15:14;1.80;99.90
18041;DHT22;9145;48.588;9.250;2023-03-15T06:17:41;1.80;99.90
18041;DHT22;9145;48.588;9.250;2023-03-15T06:20:09;1.90;99.90
18041;DHT22;9145;48.588;9.250;2023-03-15T06:22:36;1.90;99.90
18041;DHT22;9145;48.588;9.250;2023-03-15T06:25:04;1.80;99.90
18041;DHT22;9145;48.588;9.250;2023-03-15T06:27:31;1.80;99.90
18041;DHT22;9145;48.588;9.250;2023-03-15T06:29:59;1.70;99.90
18041;DHT22;9145;48.588;9.250;2023-03-15T06:32:26;1.70;99.90
18041;DHT22;9145;48.588;9.250;2023-03-15T06:34:53;1.70;99.90
18041;DHT22;9145;48.588;9.250;2023-03-15T06:37:20;1.80;99.90
18041;DHT22;9145;48.588;9.250;2023-03-15T06:39:47;1.80;99.90
18041;DHT22;9145;48.588;9.250;2023-03-15T06:42:15;1.80;99.90
18041;DHT22;9145;48.588;9.250;2023-03-15T06:44:42;1.80;99.90
18041;DHT22;9145;48.588;9.250;2023-03-15T06:47:11;1.80;99.90
18041;DHT22;9145;48.588;9.250;2023-03-15T06:49:38;1.80;99.90
18041;DHT22;9145;48.588;9.250;2023-03-15T06:52:05;1.70;99.90
18041;DHT22;9145;48.588;9.250;2023-03-15T06:54:32;1.70;99.90
18041;DHT22;9145;48.588;9.250;2023-03-15T06:56:59;1.70;99.90
18041;DHT22;9145;48.588;9.250;2023-03-15T06:59:26;1.70;99.90
18041;DHT22;9145;48.588;9.250;2023-03-15T07:01:53;1.70;99.90
18041;DHT22;9145;48.588;9.250;2023-03-15T07:04:21;1.70;99.90
18041;DHT22;9145;48.588;9.250;2023-03-15T07:06:47;1.80;99.90
18041;DHT22;9145;48.588;9.250;2023-03-15T07:09:14;1.80;99.90
18041;DHT22;9145;48.588;9.250;2023-03-15T07:11:41;1.80;99.90
18041;DHT22;9145;48.588;9.250;2023-03-15T07:14:08;1.90;99.90
18041;DHT22;9145;48.588;9.250;2023-03-15T07:16:35;1.90;99.90
18041;DHT22;9145;48.588;9.250;2023-03-15T07:19:02;2.00;99.90
18041;DHT22;9145;48.588;9.250;2023-03-15T07:21:30;2.00;99.90
18041;DHT22;9145;48.588;9.250;2023-03-15T07:23:57;2.00;99.90
18041;DHT22;9145;48.588;9.250;2023-03-15T07:26:24;2.10;99.90
18041;DHT22;9145;48.588;9.250;2023-03-15T07:28:50;2.20;99.90
18041;DHT22;9145;48.588;9.250;2023-03-15T07:31:17;2.30;99.90
18041;DHT22;9145;48.588;9.250;2023-03-15T07:33:44;2.30;99.90
18041;DHT22;9145;48.588;9.250;2023-03-15T07:36:11;2.40;99.90
18041;DHT22;9145;48.588;9.250;2023-03-15T07:38:39;2.40;99.90
18041;DHT22;9145;48.588;9.250;2023-03-15T07:41:06;2.50;99.90
18041;DHT22;9145;48.588;9.250;2023-03-15T07:43:33;2.50;99.90
18041;DHT22;9145;48.588;9.250;2023-03-15T07:46:01;2.60;99.90
18041;DHT22;9145;48.588;9.250;2023-03-15T07:48:28;2.70;99.90
18041;DHT22;9145;48.588;9.250;2023-03-15T07:50:55;2.80;99.90
18041;DHT22;9145;48.588;9.250;2023-03-15T07:53:22;2.90;99.90
18041;DHT22;9145;48.588;9.250;2023-03-15T07:55:50;3.00;99.90
18041;DHT22;9145;48.588;9.250;2023-03-15T07:58:17;3.00;99.90
18041;DHT22;9145;48.588;9.250;2023-03-15T08:00:44;3.10;99.90
18041;DHT22;9145;48.588;9.250;2023-03-15T08:03:11;3.20;99.90
18041;DHT22;9145;48.588;9.250;2023-03-15T08:05:38;3.30;99.90
18041;DHT22;9145;48.588;9.250;2023-03-15T08:08:05;3.40;99.90
18041;DHT22;9145;48.588;9.250;2023-03-15T08:10:32;3.40;99.90
18041;DHT22;9145;48.588;9.250;2023-03-15T08:13:00;3.50;99.90
18041;DHT22;9145;48.588;9.250;2023-03-15T08:15:27;3.60;99.90
18041;DHT22;9145;48.588;9.250;2023-03-15T08:17:54;3.70;99.90
18041;DHT22;9145;48.588;9.250;2023-03-15T08:20:21;3.70;99.90
18041;DHT22;9145;48.588;9.250;2023-03-15T08:22:49;3.80;99.90
18041;DHT22;9145;48.588;9.250;2023-03-15T08:25:17;3.90;99.90
18041;DHT22;9145;48.588;9.250;2023-03-15T08:27:45;3.90;99.90
18041;DHT22;9145;48.588;9.250;2023-03-15T08:30:15;3.90;99.90
18041;DHT22;9145;48.588;9.250;2023-03-15T08:32:44;3.90;99.90
18041;DHT22;9145;48.588;9.250;2023-03-15T08:35:12;4.00;99.90
18041;DHT22;9145;48.588;9.250;2023-03-15T08:37:40;4.10;99.90
18041;DHT22;9145;48.588;9.250;2023-03-15T08:40:07;4.10;99.90
18041;DHT22;9145;48.588;9.250;2023-03-15T08:42:35;4.10;99.90
18041;DHT22;9145;48.588;9.250;2023-03-15T08:45:03;4.20;99.90
18041;DHT22;9145;48.588;9.250;2023-03-15T08:47:33;4.30;99.90
18041;DHT22;9145;48.588;9.250;2023-03-15T08:50:00;4.40;99.90
18041;DHT22;9145;48.588;9.250;2023-03-15T08:52:30;4.40;99.90
18041;DHT22;9145;48.588;9.250;2023-03-15T08:54:57;4.40;99.90
18041;DHT22;9145;48.588;9.250;2023-03-15T08:57:25;4.50;99.90
18041;DHT22;9145;48.588;9.250;2023-03-15T08:59:53;4.70;99.90
18041;DHT22;9145;48.588;9.250;2023-03-15T09:02:20;4.80;99.90
18041;DHT22;9145;48.588;9.250;2023-03-15T09:04:49;4.90;99.90
18041;DHT22;9145;48.588;9.250;2023-03-15T09:07:16;4.90;99.90
18041;DHT22;9145;48.588;9.250;2023-03-15T09:09:43;4.80;99.90
18041;DHT22;9145;48.588;9.250;2023-03-15T09:12:13;4.80;99.90
18041;DHT22;9145;48.588;9.250;2023-03-15T09:14:40;4.90;99.90
18041;DHT22;9145;48.588;9.250;2023-03-15T09:17:07;4.90;99.90
18041;DHT22;9145;48.588;9.250;2023-03-15T09:19:33;5.20;99.90
18041;DHT22;9145;48.588;9.250;2023-03-15T09:22:02;5.40;99.90
18041;DHT22;9145;48.588;9.250;2023-03-15T09:24:29;5.60;99.90
18041;DHT22;9145;48.588;9.250;2023-03-15T09:26:55;5.60;99.90
18041;DHT22;9145;48.588;9.250;2023-03-15T09:29:23;5.50;99.90
18041;DHT22;9145;48.588;9.250;2023-03-15T09:31:49;5.40;99.90
18041;DHT22;9145;48.588;9.250;2023-03-15T09:34:16;5.40;99.90
18041;DHT22;9145;48.588;9.250;2023-03-15T09:36:43;5.70;99.90
18041;DHT22;9145;48.588;9.250;2023-03-15T09:39:11;6.10;99.90
18041;DHT22;9145;48.588;9.250;2023-03-15T09:41:43;6.10;99.90
18041;DHT22;9145;48.588;9.250;2023-03-15T09:44:17;6.00;99.90
18041;DHT22;9145;48.588;9.250;2023-03-15T09:46:57;5.80;99.90
18041;DHT22;9145;48.588;9.250;2023-03-15T09:49:31;5.90;99.90
18041;DHT22;9145;48.588;9.250;2023-03-15T09:52:01;5.90;99.90
18041;DHT22;9145;48.588;9.250;2023-03-15T09:54:38;5.80;99.90
18041;DHT22;9145;48.588;9.250;2023-03-15T09:57:10;5.80;99.90
18041;DHT22;9145;48.588;9.250;2023-03-15T09:59:43;5.80;99.90
18041;DHT22;9145;48.588;9.250;2023-03-15T10:02:17;5.80;99.90
18041;DHT22;9145;48.588;9.250;2023-03-15T10:04:48;5.90;99.90
18041;DHT22;9145;48.588;9.250;2023-03-15T10:07:16;5.70;99.90
18041;DHT22;9145;48.588;9.250;2023-03-15T10:09:44;5.80;99.90
18041;DHT22;9145;48.588;9.250;2023-03-15T10:12:13;5.80;99.90
18041;DHT22;9145;48.588;9.250;2023-03-15T10:15:03;5.80;99.90
18041;DHT22;9145;48.588;9.250;2023-03-15T10:17:41;5.90;99.90
18041;DHT22;9145;48.588;9.250;2023-03-15T10:20:12;5.80;99.90
18041;DHT22;9145;48.588;9.250;2023-03-15T10:22:46;5.80;99.90
18041;DHT22;9145;48.588;9.250;2023-03-15T10:25:19;5.80;99.90
18041;DHT22;9145;48.588;9.250;2023-03-15T10:27:50;5.80;99.90
18041;DHT22;9145;48.588;9.250;2023-03-15T10:30:20;5.80;99.90
18041;DHT22;9145;48.588;9.250;2023-03-15T10:32:51;5.80;99.90
18041;DHT22;9145;48.588;9.250;2023-03-15T10:35:19;5.90;99.90
18041;DHT22;9145;48.588;9.250;2023-03-15T10:37:47;6.00;99.90
18041;DHT22;9145;48.588;9.250;2023-03-15T10:40:14;6.10;99.90
18041;DHT22;9145;48.588;9.250;2023-03-15T10:42:44;6.20;99.90
18041;DHT22;9145;48.588;9.250;2023-03-15T10:45:17;6.20;99.90
18041;DHT22;9145;48.588;9.250;2023-03-15T10:47:46;6.30;99.90
18041;DHT22;9145;48.588;9.250;2023-03-15T10:50:17;6.40;99.90
18041;DHT22;9145;48.588;9.250;2023-03-15T10:52:54;6.50;99.90
18041;DHT22;9145;48.588;9.250;2023-03-15T10:55:29;6.50;99.90
18041;DHT22;9145;48.588;9.250;2023-03-15T10:58:12;6.50;99.90
18041;DHT22;9145;48.588;9.250;2023-03-15T11:00:48;6.50;99.90
18041;DHT22;9145;48.588;9.250;2023-03-15T11:03:17;6.40;99.90
18041;DHT22;9145;48.588;9.250;2023-03-15T11:05:46;6.60;99.90
18041;DHT22;9145;48.588;9.250;2023-03-15T11:08:15;6.90;99.90
18041;DHT22;9145;48.588;9.250;2023-03-15T12:54:20;7.60;99.90
18041;DHT22;9145;48.588;9.250;2023-03-15T12:56:49;7.80;99.90
18041;DHT22;9145;48.588;9.250;2023-03-15T12:59:28;7.80;99.90
18041;DHT22;9145;48.588;9.250;2023-03-15T13:01:57;7.80;99.90
18041;DHT22;9145;48.588;9.250;2023-03-15T13:04:26;7.80;99.90
18041;DHT22;9145;48.588;9.250;2023-03-15T13:07:01;7.90;99.90
18041;DHT22;9145;48.588;9.250;2023-03-15T13:09:50;7.90;99.90
18041;DHT22;9145;48.588;9.250;2023-03-15T13:12:25;8.00;99.90
18041;DHT22;9145;48.588;9.250;2023-03-15T13:14:56;8.00;99.90
18041;DHT22;9145;48.588;9.250;2023-03-15T13:17:34;8.10;99.90
18041;DHT22;9145;48.588;9.250;2023-03-15T13:20:30;8.10;99.90
18041;DHT22;9145;48.588;9.250;2023-03-15T13:23:10;8.10;99.90
18041;DHT22;9145;48.588;9.250;2023-03-15T13:25:47;7.90;99.90
18041;DHT22;9145;48.588;9.250;2023-03-15T13:28:21;7.80;99.90
18041;DHT22;9145;48.588;9.250;2023-03-15T13:30:50;7.70;99.90
18041;DHT22;9145;48.588;9.250;2023-03-15T13:33:20;7.60;99.90
18041;DHT22;9145;48.588;9.250;2023-03-15T13:35:53;7.60;99.90
18041;DHT22;9145;48.588;9.250;2023-03-15T13:38:24;7.60;99.90
18041;DHT22;9145;48.588;9.250;2023-03-15T13:40:52;7.60;99.90
18041;DHT22;9145;48.588;9.250;2023-03-15T13:43:22;7.60;99.90
18041;DHT22;9145;48.588;9.250;2023-03-15T13:45:50;7.70;99.90
18041;DHT22;9145;48.588;9.250;2023-03-15T13:48:17;7.70;99.90
18041;DHT22;9145;48.588;9.250;2023-03-15T13:50:47;7.70;99.90
18041;DHT22;9145;48.588;9.250;2023-03-15T13:53:17;7.70;99.90
18041;DHT22;9145;48.588;9.250;2023-03-15T13:55:48;7.70;99.90
18041;DHT22;9145;48.588;9.250;2023-03-15T13:58:18;7.70;99.90
18041;DHT22;9145;48.588;9.250;2023-03-15T14:00:48;7.70;99.90
18041;DHT22;9145;48.588;9.250;2023-03-15T14:03:19;7.70;99.90
18041;DHT22;9145;48.588;9.250;2023-03-15T14:05:50;7.60;99.90
18041;DHT22;9145;48.588;9.250;2023-03-15T14:08:21;7.60;99.90
18041;DHT22;9145;48.588;9.250;2023-03-15T14:11:00;7.50;99.90
18041;DHT22;9145;48.588;9.250;2023-03-15T14:13:30;7.50;99.90
18041;DHT22;9145;48.588;9.250;2023-03-15T14:16:00;7.50;99.90
18041;DHT22;9145;48.588;9.250;2023-03-15T14:18:30;7.50;99.90
18041;DHT22;9145;48.588;9.250;2023-03-15T14:20:59;7.50;99.90
18041;DHT22;9145;48.588;9.250;2023-03-15T14:23:28;7.50;99.90
18041;DHT22;9145;48.588;9.250;2023-03-15T14:26:04;7.60;99.90
18041;DHT22;9145;48.588;9.250;2023-03-15T14:28:33;7.70;99.90
18041;DHT22;9145;48.588;9.250;2023-03-15T14:31:00;7.70;99.90
18041;DHT22;9145;48.588;9.250;2023-03-15T14:33:31;7.80;99.90
18041;DHT22;9145;48.588;9.250;2023-03-15T14:36:00;7.90;99.90
18041;DHT22;9145;48.588;9.250;2023-03-15T14:38:33;8.60;99.90
18041;DHT22;9145;48.588;9.250;2023-03-15T14:41:16;9.20;99.90
18041;DHT22;9145;48.588;9.250;2023-03-15T14:43:44;9.60;99.90
18041;DHT22;9145;48.588;9.250;2023-03-15T14:46:11;10.40;99.90
18041;DHT22;9145;48.588;9.250;2023-03-15T14:48:38;10.70;99.90
18041;DHT22;9145;48.588;9.250;2023-03-15T14:51:06;10.70;99.90
18041;DHT22;9145;48.588;9.250;2023-03-15T14:53:36;10.40;99.90
18041;DHT22;9145;48.588;9.250;2023-03-15T14:56:03;10.20;99.90
18041;DHT22;9145;48.588;9.250;2023-03-15T14:58:30;9.90;99.90
18041;DHT22;9145;48.588;9.250;2023-03-15T15:00:58;9.70;99.90
18041;DHT22;9145;48.588;9.250;2023-03-15T15:03:30;9.50;99.90
18041;DHT22;9145;48.588;9.250;2023-03-15T15:05:58;9.30;99.90
18041;DHT22;9145;48.588;9.250;2023-03-15T15:08:25;9.10;99.90
18041;DHT22;9145;48.588;9.250;2023-03-15T15:10:55;8.80;99.90
18041;DHT22;9145;48.588;9.250;2023-03-15T15:13:23;8.60;99.90
18041;DHT22;9145;48.588;9.250;2023-03-15T15:15:51;8.40;99.90
18041;DHT22;9145;48.588;9.250;2023-03-15T15:18:20;8.20;99.90
18041;DHT22;9145;48.588;9.250;2023-03-15T15:20:47;7.90;99.90
18041;DHT22;9145;48.588;9.250;2023-03-15T15:23:18;7.70;99.90
18041;DHT22;9145;48.588;9.250;2023-03-15T15:25:46;7.60;99.90
18041;DHT22;9145;48.588;9.250;2023-03-15T15:28:14;7.50;99.90
18041;DHT22;9145;48.588;9.250;2023-03-15T15:30:40;7.40;99.90
18041;DHT22;9145;48.588;9.250;2023-03-15T15:33:07;7.40;99.90
18041;DHT22;9145;48.588;9.250;2023-03-15T15:35:35;7.30;99.90
18041;DHT22;9145;48.588;9.250;2023-03-15T15:38:07;7.10;99.90
18041;DHT22;9145;48.588;9.250;2023-03-15T15:40:35;6.90;99.90
18041;DHT22;9145;48.588;9.250;2023-03-15T15:43:02;6.70;99.90
18041;DHT22;9145;48.588;9.250;2023-03-15T15:45:29;6.60;99.90
18041;DHT22;9145;48.588;9.250;2023-03-15T15:47:58;6.50;99.90
18041;DHT22;9145;48.588;9.250;2023-03-15T15:50:31;6.40;99.90
18041;DHT22;9145;48.588;9.250;2023-03-15T15:53:01;6.10;99.90
18041;DHT22;9145;48.588;9.250;2023-03-15T15:55:31;6.00;99.90
18041;DHT22;9145;48.588;9.250;2023-03-15T15:57:58;5.90;99.90
18041;DHT22;9145;48.588;9.250;2023-03-15T16:00:27;5.80;99.90
18041;DHT22;9145;48.588;9.250;2023-03-15T16:02:55;5.70;99.90
18041;DHT22;9145;48.588;9.250;2023-03-15T16:05:24;5.70;99.90
18041;DHT22;9145;48.588;9.250;2023-03-15T16:07:52;5.70;99.90
18041;DHT22;9145;48.588;9.250;2023-03-15T16:10:23;5.70;99.90
18041;DHT22;9145;48.588;9.250;2023-03-15T16:12:51;5.70;99.90
18041;DHT22;9145;48.588;9.250;2023-03-15T16:15:19;5.80;99.90
18041;DHT22;9145;48.588;9.250;2023-03-15T16:17:46;6.00;99.90
18041;DHT22;9145;48.588;9.250;2023-03-15T16:20:14;6.00;99.90
18041;DHT22;9145;48.588;9.250;2023-03-15T16:22:43;6.00;99.90
18041;DHT22;9145;48.588;9.250;2023-03-15T16:25:14;6.00;99.90
18041;DHT22;9145;48.588;9.250;2023-03-15T16:27:44;6.00;99.90
18041;DHT22;9145;48.588;9.250;2023-03-15T16:30:18;5.90;99.90
18041;DHT22;9145;48.588;9.250;2023-03-15T16:32:46;5.70;99.90
18041;DHT22;9145;48.588;9.250;2023-03-15T16:35:13;5.70;99.90
18041;DHT22;9145;48.588;9.250;2023-03-15T16:37:40;5.70;99.90
18041;DHT22;9145;48.588;9.250;2023-03-15T16:40:13;5.60;99.90
18041;DHT22;9145;48.588;9.250;2023-03-15T16:42:44;5.70;99.90
18041;DHT22;9145;48.588;9.250;2023-03-15T16:45:12;5.60;99.90
18041;DHT22;9145;48.588;9.250;2023-03-15T16:47:39;5.60;99.90
18041;DHT22;9145;48.588;9.250;2023-03-15T16:50:06;5.60;99.90
18041;DHT22;9145;48.588;9.250;2023-03-15T16:52:33;5.70;99.90
18041;DHT22;9145;48.588;9.250;2023-03-15T16:55:00;5.80;99.90
18041;DHT22;9145;48.588;9.250;2023-03-15T16:57:27;5.80;99.90
18041;DHT22;9145;48.588;9.250;2023-03-15T16:59:55;5.80;99.90
18041;DHT22;9145;48.588;9.250;2023-03-15T17:02:24;5.80;99.90
18041;DHT22;9145;48.588;9.250;2023-03-15T17:04:52;5.80;99.90
18041;DHT22;9145;48.588;9.250;2023-03-15T17:07:20;5.80;99.90
18041;DHT22;9145;48.588;9.250;2023-03-15T17:09:48;5.80;99.90
18041;DHT22;9145;48.588;9.250;2023-03-15T17:12:20;5.80;99.90
18041;DHT22;9145;48.588;9.250;2023-03-15T17:14:47;5.70;99.90
18041;DHT22;9145;48.588;9.250;2023-03-15T17:17:16;5.60;99.90
18041;DHT22;9145;48.588;9.250;2023-03-15T17:19:43;5.40;99.90
18041;DHT22;9145;48.588;9.250;2023-03-15T17:22:10;5.40;99.90
18041;DHT22;9145;48.588;9.250;2023-03-15T17:24:37;5.30;99.90
18041;DHT22;9145;48.588;9.250;2023-03-15T17:27:04;5.20;99.90
18041;DHT22;9145;48.588;9.250;2023-03-15T17:29:31;5.10;99.90
18041;DHT22;9145;48.588;9.250;2023-03-15T17:31:58;5.10;99.90
18041;DHT22;9145;48.588;9.250;2023-03-15T17:34:26;5.10;99.90
18041;DHT22;9145;48.588;9.250;2023-03-15T17:36:53;5.00;99.90
18041;DHT22;9145;48.588;9.250;2023-03-15T17:39:20;5.10;99.90
18041;DHT22;9145;48.588;9.250;2023-03-15T17:41:47;5.20;99.90
18041;DHT22;9145;48.588;9.250;2023-03-15T17:44:14;5.20;99.90
18041;DHT22;9145;48.588;9.250;2023-03-15T17:46:41;5.30;99.90
18041;DHT22;9145;48.588;9.250;2023-03-15T17:49:08;5.20;99.90
18041;DHT22;9145;48.588;9.250;2023-03-15T17:51:38;5.30;99.90
18041;DHT22;9145;48.588;9.250;2023-03-15T17:54:11;5.30;99.90